sensor_id;sensor_type;location;lat;lon;timestamp;temperature;humidity
10530;DHT22;5313;48.834;9.228;2023-05-07T00:00:09;14.40;99.90
10530;DHT22;5313;48.834;9.228;2023-05-07T00:02:36;14.40;99.90
10530;DHT22;5313;48.834;9.228;2023-05-07T00:05:03;14.30;99.90
10530;DHT22;5313;48.834;9.228;2023-05-07T00:07:29;14.30;99.90
10530;DHT22;5313;48.834;9.228;2023-05-07T00:09:54;14.20;99.90
10530;DHT22;5313;48.834;9.228;2023-05-07T00:12:20;14.20;99.90
10530;DHT22;5313;48.834;9.228;2023-05-07T00:14:46;14.10;99.90
10530;DHT22;5313;48.834;9.228;2023-05-07T00:17:11;14.10;99.90
10530;DHT22;5313;48.834;9.228;2023-05-07T00:19:37;14.10;99.90
10530;DHT22;5313;48.834;9.228;2023-05-07T00:22:02;14.10;99.90
10530;DHT22;5313;48.834;9.228;2023-05-07T00:24:28;13.90;99.90
10530;DHT22;5313;48.834;9.228;2023-05-07T00:26:53;13.70;99.90
10530;DHT22;5313;48.834;9.228;2023-05-07T00:29:19;13.70;99.90
10530;DHT22;5313;48.834;9.228;2023-05-07T00:31:44;13.70;99.90
10530;DHT22;5313;48.834;9.228;2023-05-07T00:34:10;13.60;99.90
10530;DHT22;5313;48.834;9.228;2023-05-07T00:36:35;13.50;99.90
10530;DHT22;5313;48.834;9.228;2023-05-07T00:39:01;13.50;99.90
10530;DHT22;5313;48.834;9.228;2023-05-07T00:41:29;13.60;99.90
10530;DHT22;5313;48.834;9.228;2023-05-07T00:43:55;13.50;99.90
10530;DHT22;5313;48.834;9.228;2023-05-07T00:46:22;13.50;99.90
10530;DHT22;5313;48.834;9.228;2023-05-07T00:48:48;13.60;99.90
10530;DHT22;5313;48.834;9.228;2023-05-07T00:51:14;13.60;99.90
10530;DHT22;5313;48.834;9.228;2023-05-07T00:53:40;13.60;99.90
10530;DHT22;5313;48.834;9.228;2023-05-07T00:56:06;13.70;99.90
10530;DHT22;5313;48.834;9.228;2023-05-07T00:58:33;13.70;99.90
10530;DHT22;5313;48.834;9.228;2023-05-07T01:00:59;13.70;99.90
10530;DHT22;5313;48.834;9.228;2023-05-07T01:03:24;13.60;99.90
10530;DHT22;5313;48.834;9.228;2023-05-07T01:05:51;13.60;99.90
10530;DHT22;5313;48.834;9.228;2023-05-07T01:08:18;13.50;99.90
10530;DHT22;5313;48.834;9.228;2023-05-07T01:10:44;13.60;99.90
10530;DHT22;5313;48.834;9.228;2023-05-07T01:13:10;13.50;99.90
10530;DHT22;5313;48.834;9.228;2023-05-07T01:15:37;13.50;99.90
10530;DHT22;5313;48.834;9.228;2023-05-07T01:18:03;13.60;99.90
10530;DHT22;5313;48.834;9.228;2023-05-07T01:20:29;13.60;99.90
10530;DHT22;5313;48.834;9.228;2023-05-07T01:22:56;13.60;99.90
10530;DHT22;5313;48.834;9.228;2023-05-07T01:25:22;13.60;99.90
10530;DHT22;5313;48.834;9.228;2023-05-07T01:27:48;13.50;99.90
10530;DHT22;5313;48.834;9.228;2023-05-07T01:30:14;13.50;99.90
10530;DHT22;5313;48.834;9.228;2023-05-07T01:32:52;13.50;99.90
10530;DHT22;5313;48.834;9.228;2023-05-07T01:35:23;13.50;99.90
10530;DHT22;5313;48.834;9.228;2023-05-07T01:37:49;13.60;99.90
10530;DHT22;5313;48.834;9.228;2023-05-07T01:40:15;13.50;99.90
10530;DHT22;5313;48.834;9.228;2023-05-07T01:42:43;13.50;99.90
10530;DHT22;5313;48.834;9.228;2023-05-07T01:45:09;13.50;99.90
10530;DHT22;5313;48.834;9.228;2023-05-07T01:47:36;13.50;99.90
10530;DHT22;5313;48.834;9.228;2023-05-07T01:50:03;13.40;99.90
10530;DHT22;5313;48.834;9.228;2023-05-07T01:52:29;13.40;99.90
10530;DHT22;5313;48.834;9.228;2023-05-07T01:54:55;13.40;99.90
10530;DHT22;5313;48.834;9.228;2023-05-07T01:57:20;13.40;99.90
10530;DHT22;5313;48.834;9.228;2023-05-07T01:59:46;13.30;99.90
10530;DHT22;5313;48.834;9.228;2023-05-07T02:02:11;13.30;99.90
10530;DHT22;5313;48.834;9.228;2023-05-07T02:04:37;13.30;99.90
10530;DHT22;5313;48.834;9.228;2023-05-07T02:07:02;13.30;99.90
10530;DHT22;5313;48.834;9.228;2023-05-07T02:09:28;13.30;99.90
10530;DHT22;5313;48.834;9.228;2023-05-07T02:11:53;13.20;99.90
10530;DHT22;5313;48.834;9.228;2023-05-07T02:14:19;13.20;99.90
10530;DHT22;5313;48.834;9.228;2023-05-07T02:16:45;13.20;99.90
10530;DHT22;5313;48.834;9.228;2023-05-07T02:19:11;13.20;99.90
10530;DHT22;5313;48.834;9.228;2023-05-07T02:21:37;13.30;99.90
10530;DHT22;5313;48.834;9.228;2023-05-07T02:24:02;13.30;99.90
10530;DHT22;5313;48.834;9.228;2023-05-07T02:26:28;13.30;99.90
10530;DHT22;5313;48.834;9.228;2023-05-07T02:28:53;13.40;99.90
10530;DHT22;5313;48.834;9.228;2023-05-07T02:31:19;13.30;99.90
10530;DHT22;5313;48.834;9.228;2023-05-07T02:33:44;13.40;99.90
10530;DHT22;5313;48.834;9.228;2023-05-07T02:36:11;13.40;99.90
10530;DHT22;5313;48.834;9.228;2023-05-07T02:38:37;13.40;99.90
10530;DHT22;5313;48.834;9.228;2023-05-07T02:41:03;13.30;99.90
10530;DHT22;5313;48.834;9.228;2023-05-07T02:43:29;13.30;99.90
10530;DHT22;5313;48.834;9.228;2023-05-07T02:46:02;13.30;99.90
10530;DHT22;5313;48.834;9.228;2023-05-07T02:48:28;13.30;99.90
10530;DHT22;5313;48.834;9.228;2023-05-07T02:50:53;13.20;99.90
10530;DHT22;5313;48.834;9.228;2023-05-07T02:53:19;13.10;99.90
10530;DHT22;5313;48.834;9.228;2023-05-07T02:55:45;13.00;99.90
10530;DHT22;5313;48.834;9.228;2023-05-07T02:58:10;13.00;99.90
10530;DHT22;5313;48.834;9.228;2023-05-07T03:00:36;13.00;99.90
10530;DHT22;5313;48.834;9.228;2023-05-07T03:03:01;12.90;99.90
10530;DHT22;5313;48.834;9.228;2023-05-07T03:05:27;12.90;99.90
10530;DHT22;5313;48.834;9.228;2023-05-07T03:07:52;12.80;99.90
10530;DHT22;5313;48.834;9.228;2023-05-07T03:10:18;12.80;99.90
10530;DHT22;5313;48.834;9.228;2023-05-07T03:12:44;12.70;99.90
10530;DHT22;5313;48.834;9.228;2023-05-07T03:15:09;12.70;99.90
10530;DHT22;5313;48.834;9.228;2023-05-07T03:17:36;12.60;99.90
10530;DHT22;5313;48.834;9.228;2023-05-07T03:20:02;12.50;99.90
10530;DHT22;5313;48.834;9.228;2023-05-07T03:22:28;12.50;99.90
10530;DHT22;5313;48.834;9.228;2023-05-07T03:24:53;12.40;99.90
10530;DHT22;5313;48.834;9.228;2023-05-07T03:27:19;12.60;99.90
10530;DHT22;5313;48.834;9.228;2023-05-07T03:29:44;12.60;99.90
10530;DHT22;5313;48.834;9.228;2023-05-07T03:32:10;12.50;99.90
10530;DHT22;5313;48.834;9.228;2023-05-07T03:34:35;12.40;99.90
10530;DHT22;5313;48.834;9.228;2023-05-07T03:37:01;12.80;99.90
10530;DHT22;5313;48.834;9.228;2023-05-07T03:39:27;12.60;99.90
10530;DHT22;5313;48.834;9.228;2023-05-07T03:41:52;12.50;99.90
10530;DHT22;5313;48.834;9.228;2023-05-07T03:44:18;12.40;99.90
10530;DHT22;5313;48.834;9.228;2023-05-07T03:46:44;12.40;99.90
10530;DHT22;5313;48.834;9.228;2023-05-07T03:49:09;12.30;99.90
10530;DHT22;5313;48.834;9.228;2023-05-07T03:51:35;12.30;99.90
10530;DHT22;5313;48.834;9.228;2023-05-07T03:54:01;12.30;99.90
10530;DHT22;5313;48.834;9.228;2023-05-07T03:56:26;12.30;99.90
10530;DHT22;5313;48.834;9.228;2023-05-07T03:58:53;12.20;99.90
10530;DHT22;5313;48.834;9.228;2023-05-07T04:01:19;12.10;99.90
10530;DHT22;5313;48.834;9.228;2023-05-07T04:03:44;12.10;99.90
10530;DHT22;5313;48.834;9.228;2023-05-07T04:06:10;12.20;99.90
10530;DHT22;5313;48.834;9.228;2023-05-07T04:08:35;12.20;99.90
10530;DHT22;5313;48.834;9.228;2023-05-07T04:11:01;12.10;99.90
10530;DHT22;5313;48.834;9.228;2023-05-07T04:13:27;12.10;99.90
10530;DHT22;5313;48.834;9.228;2023-05-07T04:15:54;12.00;99.90
10530;DHT22;5313;48.834;9.228;2023-05-07T04:18:20;11.90;99.90
10530;DHT22;5313;48.834;9.228;2023-05-07T04:20:47;12.00;99.90
10530;DHT22;5313;48.834;9.228;2023-05-07T04:23:12;12.00;99.90
10530;DHT22;5313;48.834;9.228;2023-05-07T04:25:38;11.90;99.90
10530;DHT22;5313;48.834;9.228;2023-05-07T04:28:03;12.00;99.90
10530;DHT22;5313;48.834;9.228;2023-05-07T04:30:29;12.10;99.90
10530;DHT22;5313;48.834;9.228;2023-05-07T04:32:54;12.20;99.90
10530;DHT22;5313;48.834;9.228;2023-05-07T04:35:21;12.30;99.90
10530;DHT22;5313;48.834;9.228;2023-05-07T04:37:47;12.30;99.90
10530;DHT22;5313;48.834;9.228;2023-05-07T04:40:12;12.30;99.90
10530;DHT22;5313;48.834;9.228;2023-05-07T04:42:38;12.20;99.90
10530;DHT22;5313;48.834;9.228;2023-05-07T04:45:04;12.30;99.90
10530;DHT22;5313;48.834;9.228;2023-05-07T04:47:30;12.50;99.90
10530;DHT22;5313;48.834;9.228;2023-05-07T04:49:55;12.50;99.90
10530;DHT22;5313;48.834;9.228;2023-05-07T04:52:21;12.40;99.90
10530;DHT22;5313;48.834;9.228;2023-05-07T04:54:46;12.50;99.90
10530;DHT22;5313;48.834;9.228;2023-05-07T04:57:12;12.60;99.90
10530;DHT22;5313;48.834;9.228;2023-05-07T04:59:37;12.50;99.90
10530;DHT22;5313;48.834;9.228;2023-05-07T05:02:03;12.60;99.90
10530;DHT22;5313;48.834;9.228;2023-05-07T05:04:29;12.70;99.90
10530;DHT22;5313;48.834;9.228;2023-05-07T05:06:55;12.60;99.90
10530;DHT22;5313;48.834;9.228;2023-05-07T05:09:21;12.60;99.90
10530;DHT22;5313;48.834;9.228;2023-05-07T05:11:46;12.60;99.90
10530;DHT22;5313;48.834;9.228;2023-05-07T05:14:12;12.60;99.90
10530;DHT22;5313;48.834;9.228;2023-05-07T05:16:37;12.50;99.90
10530;DHT22;5313;48.834;9.228;2023-05-07T05:19:03;12.50;99.90
10530;DHT22;5313;48.834;9.228;2023-05-07T05:21:28;12.50;99.90
10530;DHT22;5313;48.834;9.228;2023-05-07T05:23:54;12.50;99.90
10530;DHT22;5313;48.834;9.228;2023-05-07T05:26:20;12.60;99.90
10530;DHT22;5313;48.834;9.228;2023-05-07T05:28:46;12.60;99.90
10530;DHT22;5313;48.834;9.228;2023-05-07T05:31:12;12.50;99.90
10530;DHT22;5313;48.834;9.228;2023-05-07T05:33:37;12.40;99.90
10530;DHT22;5313;48.834;9.228;2023-05-07T05:36:03;12.50;99.90
10530;DHT22;5313;48.834;9.228;2023-05-07T05:38:29;12.60;99.90
10530;DHT22;5313;48.834;9.228;2023-05-07T05:40:54;12.70;99.90
10530;DHT22;5313;48.834;9.228;2023-05-07T05:43:20;12.90;99.90
10530;DHT22;5313;48.834;9.228;2023-05-07T05:45:45;12.90;99.90
10530;DHT22;5313;48.834;9.228;2023-05-07T05:48:11;13.10;99.90
10530;DHT22;5313;48.834;9.228;2023-05-07T05:50:37;13.30;99.90
10530;DHT22;5313;48.834;9.228;2023-05-07T05:53:02;13.50;99.90
10530;DHT22;5313;48.834;9.228;2023-05-07T05:55:28;13.60;99.90
10530;DHT22;5313;48.834;9.228;2023-05-07T05:57:54;13.70;99.90
10530;DHT22;5313;48.834;9.228;2023-05-07T06:00:20;13.70;99.90
10530;DHT22;5313;48.834;9.228;2023-05-07T06:02:48;13.80;99.90
10530;DHT22;5313;48.834;9.228;2023-05-07T06:05:13;13.80;99.90
10530;DHT22;5313;48.834;9.228;2023-05-07T06:07:39;14.10;99.90
10530;DHT22;5313;48.834;9.228;2023-05-07T06:10:05;14.30;99.90
10530;DHT22;5313;48.834;9.228;2023-05-07T06:12:31;14.40;99.90
10530;DHT22;5313;48.834;9.228;2023-05-07T06:14:56;14.40;99.90
10530;DHT22;5313;48.834;9.228;2023-05-07T06:17:22;14.30;99.90
10530;DHT22;5313;48.834;9.228;2023-05-07T06:19:47;14.30;99.90
10530;DHT22;5313;48.834;9.228;2023-05-07T06:22:13;14.50;99.90
10530;DHT22;5313;48.834;9.228;2023-05-07T06:24:38;14.70;99.90
10530;DHT22;5313;48.834;9.228;2023-05-07T06:27:04;14.70;99.90
10530;DHT22;5313;48.834;9.228;2023-05-07T06:29:29;14.60;99.90
10530;DHT22;5313;48.834;9.228;2023-05-07T06:32:15;14.70;99.90
10530;DHT22;5313;48.834;9.228;2023-05-07T06:34:41;14.70;99.90
10530;DHT22;5313;48.834;9.228;2023-05-07T06:37:06;14.80;99.90
10530;DHT22;5313;48.834;9.228;2023-05-07T06:39:32;14.90;99.90
10530;DHT22;5313;48.834;9.228;2023-05-07T06:42:00;15.00;99.90
10530;DHT22;5313;48.834;9.228;2023-05-07T06:44:26;15.10;99.90
10530;DHT22;5313;48.834;9.228;2023-05-07T06:46:51;15.30;99.90
10530;DHT22;5313;48.834;9.228;2023-05-07T06:49:17;15.40;99.90
10530;DHT22;5313;48.834;9.228;2023-05-07T06:51:43;15.60;99.90
10530;DHT22;5313;48.834;9.228;2023-05-07T06:54:08;15.70;99.90
10530;DHT22;5313;48.834;9.228;2023-05-07T06:56:34;15.80;99.90
10530;DHT22;5313;48.834;9.228;2023-05-07T06:59:00;15.80;99.90
10530;DHT22;5313;48.834;9.228;2023-05-07T07:01:26;15.90;99.90
10530;DHT22;5313;48.834;9.228;2023-05-07T07:03:51;16.20;99.90
10530;DHT22;5313;48.834;9.228;2023-05-07T07:06:17;16.50;99.90
10530;DHT22;5313;48.834;9.228;2023-05-07T07:08:43;16.60;99.90
10530;DHT22;5313;48.834;9.228;2023-05-07T07:11:09;16.60;99.90
10530;DHT22;5313;48.834;9.228;2023-05-07T07:13:35;16.80;99.90
10530;DHT22;5313;48.834;9.228;2023-05-07T07:16:00;17.10;99.90
10530;DHT22;5313;48.834;9.228;2023-05-07T07:18:26;17.30;99.90
10530;DHT22;5313;48.834;9.228;2023-05-07T07:20:52;17.30;99.90
10530;DHT22;5313;48.834;9.228;2023-05-07T07:23:17;17.40;99.90
10530;DHT22;5313;48.834;9.228;2023-05-07T07:25:43;17.60;99.90
10530;DHT22;5313;48.834;9.228;2023-05-07T07:28:08;17.80;99.90
10530;DHT22;5313;48.834;9.228;2023-05-07T07:30:34;17.80;99.90
10530;DHT22;5313;48.834;9.228;2023-05-07T07:32:59;17.70;99.90
10530;DHT22;5313;48.834;9.228;2023-05-07T07:35:28;17.80;99.90
10530;DHT22;5313;48.834;9.228;2023-05-07T07:37:54;17.90;99.90
10530;DHT22;5313;48.834;9.228;2023-05-07T07:40:20;18.10;99.90
10530;DHT22;5313;48.834;9.228;2023-05-07T07:42:45;18.40;99.90
10530;DHT22;5313;48.834;9.228;2023-05-07T07:45:11;18.40;99.90
10530;DHT22;5313;48.834;9.228;2023-05-07T07:47:37;18.60;99.90
10530;DHT22;5313;48.834;9.228;2023-05-07T07:50:03;18.90;99.90
10530;DHT22;5313;48.834;9.228;2023-05-07T07:52:28;19.20;99.90
10530;DHT22;5313;48.834;9.228;2023-05-07T07:54:54;19.10;99.90
10530;DHT22;5313;48.834;9.228;2023-05-07T07:57:20;19.00;99.90
10530;DHT22;5313;48.834;9.228;2023-05-07T07:59:45;19.00;99.90
10530;DHT22;5313;48.834;9.228;2023-05-07T08:02:11;18.90;99.90
10530;DHT22;5313;48.834;9.228;2023-05-07T08:04:36;18.80;99.90
10530;DHT22;5313;48.834;9.228;2023-05-07T08:07:03;18.90;99.90
10530;DHT22;5313;48.834;9.228;2023-05-07T08:09:28;19.00;99.90
10530;DHT22;5313;48.834;9.228;2023-05-07T08:11:54;19.10;99.90
10530;DHT22;5313;48.834;9.228;2023-05-07T08:14:19;19.10;99.90
10530;DHT22;5313;48.834;9.228;2023-05-07T08:16:45;19.40;99.90
10530;DHT22;5313;48.834;9.228;2023-05-07T08:19:10;19.70;99.90
10530;DHT22;5313;48.834;9.228;2023-05-07T08:21:40;19.80;99.90
10530;DHT22;5313;48.834;9.228;2023-05-07T08:24:06;19.90;99.90
10530;DHT22;5313;48.834;9.228;2023-05-07T08:26:32;20.10;99.90
10530;DHT22;5313;48.834;9.228;2023-05-07T08:28:57;20.10;99.90
10530;DHT22;5313;48.834;9.228;2023-05-07T08:31:23;20.30;99.90
10530;DHT22;5313;48.834;9.228;2023-05-07T08:33:50;20.40;99.90
10530;DHT22;5313;48.834;9.228;2023-05-07T08:36:15;20.30;99.90
10530;DHT22;5313;48.834;9.228;2023-05-07T08:38:41;20.20;99.90
10530;DHT22;5313;48.834;9.228;2023-05-07T08:41:10;20.20;99.90
10530;DHT22;5313;48.834;9.228;2023-05-07T08:43:36;20.20;99.90
10530;DHT22;5313;48.834;9.228;2023-05-07T08:46:04;19.90;99.90
10530;DHT22;5313;48.834;9.228;2023-05-07T08:48:31;19.80;99.90
10530;DHT22;5313;48.834;9.228;2023-05-07T08:50:58;19.70;99.90
10530;DHT22;5313;48.834;9.228;2023-05-07T08:53:24;19.80;99.90
10530;DHT22;5313;48.834;9.228;2023-05-07T08:55:50;20.00;99.90
10530;DHT22;5313;48.834;9.228;2023-05-07T08:58:16;20.10;99.90
10530;DHT22;5313;48.834;9.228;2023-05-07T09:00:42;20.40;99.90
10530;DHT22;5313;48.834;9.228;2023-05-07T09:03:07;20.30;99.90
10530;DHT22;5313;48.834;9.228;2023-05-07T09:05:33;20.30;99.90
10530;DHT22;5313;48.834;9.228;2023-05-07T09:08:06;20.60;99.90
10530;DHT22;5313;48.834;9.228;2023-05-07T09:10:33;20.60;99.90
10530;DHT22;5313;48.834;9.228;2023-05-07T09:12:59;21.00;99.90
10530;DHT22;5313;48.834;9.228;2023-05-07T09:15:25;21.10;99.90
10530;DHT22;5313;48.834;9.228;2023-05-07T09:17:51;21.10;99.90
10530;DHT22;5313;48.834;9.228;2023-05-07T09:20:17;21.30;99.90
10530;DHT22;5313;48.834;9.228;2023-05-07T09:22:42;21.70;99.90
10530;DHT22;5313;48.834;9.228;2023-05-07T09:25:09;21.70;99.90
10530;DHT22;5313;48.834;9.228;2023-05-07T09:27:35;21.60;99.90
10530;DHT22;5313;48.834;9.228;2023-05-07T09:30:05;22.00;99.90
10530;DHT22;5313;48.834;9.228;2023-05-07T09:32:34;22.00;99.90
10530;DHT22;5313;48.834;9.228;2023-05-07T09:35:00;22.00;99.90
10530;DHT22;5313;48.834;9.228;2023-05-07T09:37:26;22.20;99.90
10530;DHT22;5313;48.834;9.228;2023-05-07T09:39:52;22.40;99.90
10530;DHT22;5313;48.834;9.228;2023-05-07T09:42:23;22.60;99.90
10530;DHT22;5313;48.834;9.228;2023-05-07T09:44:50;22.70;99.90
10530;DHT22;5313;48.834;9.228;2023-05-07T09:47:19;23.00;99.90
10530;DHT22;5313;48.834;9.228;2023-05-07T09:49:47;22.90;99.90
10530;DHT22;5313;48.834;9.228;2023-05-07T09:52:14;23.10;99.90
10530;DHT22;5313;48.834;9.228;2023-05-07T09:54:40;23.20;99.90
10530;DHT22;5313;48.834;9.228;2023-05-07T09:57:10;23.80;99.90
10530;DHT22;5313;48.834;9.228;2023-05-07T09:59:37;23.90;99.90
10530;DHT22;5313;48.834;9.228;2023-05-07T10:02:04;24.10;99.90
10530;DHT22;5313;48.834;9.228;2023-05-07T10:04:31;24.10;99.90
10530;DHT22;5313;48.834;9.228;2023-05-07T10:06:56;23.90;99.90
10530;DHT22;5313;48.834;9.228;2023-05-07T10:09:23;23.90;99.90
10530;DHT22;5313;48.834;9.228;2023-05-07T10:11:49;23.60;99.90
10530;DHT22;5313;48.834;9.228;2023-05-07T10:14:15;23.30;99.90
10530;DHT22;5313;48.834;9.228;2023-05-07T10:16:41;23.80;99.90
10530;DHT22;5313;48.834;9.228;2023-05-07T10:19:08;24.10;99.90
10530;DHT22;5313;48.834;9.228;2023-05-07T10:21:37;24.10;99.90
10530;DHT22;5313;48.834;9.228;2023-05-07T10:24:26;24.10;99.90
10530;DHT22;5313;48.834;9.228;2023-05-07T10:26:52;24.70;99.90
10530;DHT22;5313;48.834;9.228;2023-05-07T10:29:36;25.00;99.90
10530;DHT22;5313;48.834;9.228;2023-05-07T10:32:35;25.60;99.90
10530;DHT22;5313;48.834;9.228;2023-05-07T10:35:04;25.80;99.90
10530;DHT22;5313;48.834;9.228;2023-05-07T10:37:31;25.60;99.90
10530;DHT22;5313;48.834;9.228;2023-05-07T10:39:57;25.70;99.90
10530;DHT22;5313;48.834;9.228;2023-05-07T10:42:23;25.70;99.90
10530;DHT22;5313;48.834;9.228;2023-05-07T10:44:49;25.40;99.90
10530;DHT22;5313;48.834;9.228;2023-05-07T10:47:15;25.00;99.90
10530;DHT22;5313;48.834;9.228;2023-05-07T10:52:18;24.10;99.90
10530;DHT22;5313;48.834;9.228;2023-05-07T10:54:45;23.60;99.90
10530;DHT22;5313;48.834;9.228;2023-05-07T10:57:33;23.30;99.90
10530;DHT22;5313;48.834;9.228;2023-05-07T11:00:01;23.40;99.90
10530;DHT22;5313;48.834;9.228;2023-05-07T11:05:25;23.40;99.90
10530;DHT22;5313;48.834;9.228;2023-05-07T11:07:55;23.20;99.90
10530;DHT22;5313;48.834;9.228;2023-05-07T11:10:21;23.40;99.90
10530;DHT22;5313;48.834;9.228;2023-05-07T11:12:48;23.50;99.90
10530;DHT22;5313;48.834;9.228;2023-05-07T11:15:14;23.40;99.90
10530;DHT22;5313;48.834;9.228;2023-05-07T11:17:53;23.40;99.90
10530;DHT22;5313;48.834;9.228;2023-05-07T11:20:19;23.40;99.90
10530;DHT22;5313;48.834;9.228;2023-05-07T11:22:46;23.50;99.90
10530;DHT22;5313;48.834;9.228;2023-05-07T11:25:17;23.40;99.90
10530;DHT22;5313;48.834;9.228;2023-05-07T11:27:44;23.50;99.90
10530;DHT22;5313;48.834;9.228;2023-05-07T11:30:10;23.40;99.90
10530;DHT22;5313;48.834;9.228;2023-05-07T11:32:36;23.30;99.90
10530;DHT22;5313;48.834;9.228;2023-05-07T11:35:02;23.40;99.90
10530;DHT22;5313;48.834;9.228;2023-05-07T11:37:28;23.40;99.90
10530;DHT22;5313;48.834;9.228;2023-05-07T11:40:08;23.30;99.90
10530;DHT22;5313;48.834;9.228;2023-05-07T11:42:37;23.10;99.90
10530;DHT22;5313;48.834;9.228;2023-05-07T11:45:04;23.30;99.90
10530;DHT22;5313;48.834;9.228;2023-05-07T11:47:31;23.20;99.90
10530;DHT22;5313;48.834;9.228;2023-05-07T11:49:56;23.20;99.90
10530;DHT22;5313;48.834;9.228;2023-05-07T11:52:23;23.30;99.90
10530;DHT22;5313;48.834;9.228;2023-05-07T11:54:54;23.20;99.90
10530;DHT22;5313;48.834;9.228;2023-05-07T11:57:21;23.10;99.90
10530;DHT22;5313;48.834;9.228;2023-05-07T11:59:47;23.00;99.90
10530;DHT22;5313;48.834;9.228;2023-05-07T12:02:17;23.10;99.90
10530;DHT22;5313;48.834;9.228;2023-05-07T12:04:43;23.10;99.90
10530;DHT22;5313;48.834;9.228;2023-05-07T12:07:12;23.00;99.90
10530;DHT22;5313;48.834;9.228;2023-05-07T12:09:39;22.90;99.90
10530;DHT22;5313;48.834;9.228;2023-05-07T12:12:05;22.90;99.90
10530;DHT22;5313;48.834;9.228;2023-05-07T12:14:30;22.90;99.90
10530;DHT22;5313;48.834;9.228;2023-05-07T12:16:57;23.00;99.90
10530;DHT22;5313;48.834;9.228;2023-05-07T12:19:22;22.90;99.90
10530;DHT22;5313;48.834;9.228;2023-05-07T12:21:48;22.80;99.90
10530;DHT22;5313;48.834;9.228;2023-05-07T12:24:14;22.80;99.90
10530;DHT22;5313;48.834;9.228;2023-05-07T12:26:40;22.80;99.90
10530;DHT22;5313;48.834;9.228;2023-05-07T12:29:06;22.70;99.90
10530;DHT22;5313;48.834;9.228;2023-05-07T12:31:32;22.70;99.90
10530;DHT22;5313;48.834;9.228;2023-05-07T12:33:58;22.70;99.90
10530;DHT22;5313;48.834;9.228;2023-05-07T12:36:23;22.70;99.90
10530;DHT22;5313;48.834;9.228;2023-05-07T12:38:50;22.60;99.90
10530;DHT22;5313;48.834;9.228;2023-05-07T12:41:15;22.40;99.90
10530;DHT22;5313;48.834;9.228;2023-05-07T12:43:44;22.40;99.90
10530;DHT22;5313;48.834;9.228;2023-05-07T12:46:10;22.30;99.90
10530;DHT22;5313;48.834;9.228;2023-05-07T12:48:43;22.10;99.90
10530;DHT22;5313;48.834;9.228;2023-05-07T12:51:09;21.80;99.90
10530;DHT22;5313;48.834;9.228;2023-05-07T12:53:40;21.10;99.90
10530;DHT22;5313;48.834;9.228;2023-05-07T12:56:09;20.70;99.90
10530;DHT22;5313;48.834;9.228;2023-05-07T12:58:35;20.40;99.90
10530;DHT22;5313;48.834;9.228;2023-05-07T13:01:04;20.10;99.90
10530;DHT22;5313;48.834;9.228;2023-05-07T13:03:32;19.80;99.90
10530;DHT22;5313;48.834;9.228;2023-05-07T13:06:00;19.40;99.90
10530;DHT22;5313;48.834;9.228;2023-05-07T13:08:30;19.00;99.90
10530;DHT22;5313;48.834;9.228;2023-05-07T13:10:58;18.50;99.90
10530;DHT22;5313;48.834;9.228;2023-05-07T13:13:24;18.20;99.90
10530;DHT22;5313;48.834;9.228;2023-05-07T13:15:50;18.00;99.90
10530;DHT22;5313;48.834;9.228;2023-05-07T13:18:16;17.90;99.90
10530;DHT22;5313;48.834;9.228;2023-05-07T13:20:41;17.80;99.90
10530;DHT22;5313;48.834;9.228;2023-05-07T13:23:07;17.70;99.90
10530;DHT22;5313;48.834;9.228;2023-05-07T13:25:32;17.60;99.90
10530;DHT22;5313;48.834;9.228;2023-05-07T13:27:58;17.30;99.90
10530;DHT22;5313;48.834;9.228;2023-05-07T13:30:23;16.90;99.90
10530;DHT22;5313;48.834;9.228;2023-05-07T13:32:49;16.60;99.90
10530;DHT22;5313;48.834;9.228;2023-05-07T13:35:16;16.40;99.90
10530;DHT22;5313;48.834;9.228;2023-05-07T13:37:41;16.30;99.90
10530;DHT22;5313;48.834;9.228;2023-05-07T13:40:07;16.10;99.90
10530;DHT22;5313;48.834;9.228;2023-05-07T13:42:33;15.90;99.90
10530;DHT22;5313;48.834;9.228;2023-05-07T13:44:58;15.80;99.90
10530;DHT22;5313;48.834;9.228;2023-05-07T13:47:24;15.60;99.90
10530;DHT22;5313;48.834;9.228;2023-05-07T13:49:49;15.60;99.90
10530;DHT22;5313;48.834;9.228;2023-05-07T13:52:16;15.60;99.90
10530;DHT22;5313;48.834;9.228;2023-05-07T13:54:42;15.70;99.90
10530;DHT22;5313;48.834;9.228;2023-05-07T13:57:07;15.60;99.90
10530;DHT22;5313;48.834;9.228;2023-05-07T13:59:33;15.70;99.90
10530;DHT22;5313;48.834;9.228;2023-05-07T14:01:59;15.60;99.90
10530;DHT22;5313;48.834;9.228;2023-05-07T14:04:25;15.50;99.90
10530;DHT22;5313;48.834;9.228;2023-05-07T14:06:51;15.60;99.90
10530;DHT22;5313;48.834;9.228;2023-05-07T14:09:16;15.60;99.90
10530;DHT22;5313;48.834;9.228;2023-05-07T14:11:42;15.60;99.90
10530;DHT22;5313;48.834;9.228;2023-05-07T14:14:08;15.50;99.90
10530;DHT22;5313;48.834;9.228;2023-05-07T14:16:36;15.50;99.90
10530;DHT22;5313;48.834;9.228;2023-05-07T14:19:01;15.40;99.90
10530;DHT22;5313;48.834;9.228;2023-05-07T14:21:27;15.50;99.90
10530;DHT22;5313;48.834;9.228;2023-05-07T14:23:52;15.50;99.90
10530;DHT22;5313;48.834;9.228;2023-05-07T14:26:18;15.50;99.90
10530;DHT22;5313;48.834;9.228;2023-05-07T14:28:44;15.50;99.90
10530;DHT22;5313;48.834;9.228;2023-05-07T14:31:11;15.50;99.90
10530;DHT22;5313;48.834;9.228;2023-05-07T14:33:37;15.50;99.90
10530;DHT22;5313;48.834;9.228;2023-05-07T14:36:03;15.50;99.90
10530;DHT22;5313;48.834;9.228;2023-05-07T14:38:29;15.50;99.90
10530;DHT22;5313;48.834;9.228;2023-05-07T14:40:55;15.50;99.90
10530;DHT22;5313;48.834;9.228;2023-05-07T14:43:21;15.50;99.90
10530;DHT22;5313;48.834;9.228;2023-05-07T14:45:47;15.50;99.90
10530;DHT22;5313;48.834;9.228;2023-05-07T14:48:12;15.50;99.90
10530;DHT22;5313;48.834;9.228;2023-05-07T14:50:41;15.50;99.90
10530;DHT22;5313;48.834;9.228;2023-05-07T14:53:06;15.50;99.90
10530;DHT22;5313;48.834;9.228;2023-05-07T14:55:32;15.50;99.90
10530;DHT22;5313;48.834;9.228;2023-05-07T14:57:57;15.60;99.90
10530;DHT22;5313;48.834;9.228;2023-05-07T15:00:23;15.70;99.90
10530;DHT22;5313;48.834;9.228;2023-05-07T15:02:48;15.70;99.90
10530;DHT22;5313;48.834;9.228;2023-05-07T15:05:14;15.80;99.90
10530;DHT22;5313;48.834;9.228;2023-05-07T15:07:40;15.90;99.90
10530;DHT22;5313;48.834;9.228;2023-05-07T15:10:06;15.80;99.90
10530;DHT22;5313;48.834;9.228;2023-05-07T15:12:31;15.90;99.90
10530;DHT22;5313;48.834;9.228;2023-05-07T15:14:57;15.80;99.90
10530;DHT22;5313;48.834;9.228;2023-05-07T15:17:22;15.70;99.90
10530;DHT22;5313;48.834;9.228;2023-05-07T15:19:48;15.70;99.90
10530;DHT22;5313;48.834;9.228;2023-05-07T15:22:13;15.70;99.90
10530;DHT22;5313;48.834;9.228;2023-05-07T15:24:40;15.70;99.90
10530;DHT22;5313;48.834;9.228;2023-05-07T15:27:06;15.80;99.90
10530;DHT22;5313;48.834;9.228;2023-05-07T15:29:32;15.80;99.90
10530;DHT22;5313;48.834;9.228;2023-05-07T15:31:58;15.90;99.90
10530;DHT22;5313;48.834;9.228;2023-05-07T15:34:23;15.90;99.90
10530;DHT22;5313;48.834;9.228;2023-05-07T15:36:49;16.00;99.90
10530;DHT22;5313;48.834;9.228;2023-05-07T15:39:15;16.10;99.90
10530;DHT22;5313;48.834;9.228;2023-05-07T15:41:41;16.10;99.90
10530;DHT22;5313;48.834;9.228;2023-05-07T15:44:06;16.10;99.90